Terminal Aerodrome Forecast
Issued by NWS Twin Cities, MN

Home | Current Version | Previous Version | Text Only | Print | Product List | Glossary Off
Versions: 1 2 3 4 5 6 7 8 9 10 11 12 13 14 15 16 17 18

000
FTUS43 KMPX 291152 CCA
TAFSTC
TAF COR
KSTC 291152Z 2912/3012 00000KT 1SM BR SCT002
     FM291300 VRB02KT 4SM BR SCT005
     FM291500 04006KT P6SM SCT050=

USA.gov is the U.S. government's official web portal to all federal, state and local government web resources and services.